Time;durP1;ratioP1;P1;durP2;ratioP2;P2;SDS_P1;SDS_P2;PMS_P1;PMS_P2;Temp;Humidity;BMP_temperature;BMP_pressure;BME280_temperature;BME280_humidity;BME280_pressure;Samples;Min_cycle;Max_cycle;Signal;HPM_P1;HPM_P2
2022/09/13 00:00:56;;;;;;;;;6.00;6.00;;;;;21.70;68.38;100494.78;5015944;28;45294;-76
2022/09/13 00:03:22;;;;;;;;;5.00;5.00;;;;;21.72;68.16;100503.44;5030071;28;45329;-76
2022/09/13 00:05:48;;;;;;;;;4.67;4.67;;;;;21.67;68.80;100496.06;5037461;28;47389;-76
2022/09/13 00:08:14;;;;;;;;;5.00;4.00;;;;;21.63;68.91;100497.66;5023073;28;45400;-76
2022/09/13 00:10:41;;;;;;;;;6.00;6.00;;;;;21.65;68.21;100503.66;5015745;28;45479;-76
2022/09/13 00:13:09;;;;;;;;;7.00;7.00;;;;;21.65;68.47;100502.81;5015582;28;45412;-77
2022/09/13 00:15:35;;;;;;;;;7.00;6.67;;;;;21.64;68.76;100506.59;5015791;28;45512;-76
2022/09/13 00:18:01;;;;;;;;;6.00;6.00;;;;;21.65;68.82;100508.22;5015663;28;46771;-76
2022/09/13 00:20:26;;;;;;;;;5.00;5.00;;;;;21.64;68.64;100512.00;5028076;28;45349;-76
2022/09/13 00:22:53;;;;;;;;;7.00;5.67;;;;;21.57;69.30;100495.97;5015767;28;45396;-77
2022/09/13 00:25:18;;;;;;;;;6.33;6.33;;;;;21.59;68.74;100498.44;5026623;28;47029;-76
2022/09/13 00:27:44;;;;;;;;;6.00;6.00;;;;;21.56;70.08;100497.06;5016120;28;45472;-77
2022/09/13 00:30:10;;;;;;;;;5.00;5.00;;;;;21.53;69.42;100505.66;5023080;28;45545;-77
2022/09/13 00:32:36;;;;;;;;;7.00;7.00;;;;;21.49;69.78;100502.66;5033957;28;45644;-77
2022/09/13 00:35:03;;;;;;;;;5.00;5.00;;;;;21.44;70.07;100497.19;5018789;28;45406;-76
2022/09/13 00:37:28;;;;;;;;;5.33;5.33;;;;;21.50;69.65;100512.41;5018226;28;46286;-77
2022/09/13 00:39:54;;;;;;;;;5.00;5.00;;;;;21.46;70.37;100511.25;5021050;28;45387;-76
2022/09/13 00:42:25;;;;;;;;;7.00;7.00;;;;;21.41;70.86;100511.22;5017311;28;45412;-76
2022/09/13 00:45:05;;;;;;;;;5.67;5.67;;;;;21.48;70.54;100519.94;5018559;28;45226;-77
2022/09/13 00:48:02;;;;;;;;;6.00;6.00;;;;;21.46;71.12;100491.53;5018309;28;45435;-76
2022/09/13 00:50:33;;;;;;;;;6.00;5.67;;;;;21.57;70.29;100504.09;5032261;28;45352;-77
2022/09/13 00:53:15;;;;;;;;;6.00;6.00;;;;;21.57;70.17;100496.81;5025774;28;45406;-77
2022/09/13 00:55:45;;;;;;;;;5.00;5.00;;;;;21.54;70.30;100491.91;5018478;28;45546;-77
2022/09/13 00:58:21;;;;;;;;;6.33;6.00;;;;;21.49;71.08;100478.31;5018313;28;46293;-77
2022/09/13 01:00:48;;;;;;;;;5.00;5.00;;;;;21.53;71.12;100478.63;5018195;28;45430;-76
2022/09/13 01:03:18;;;;;;;;;8.00;6.67;;;;;21.58;70.15;100470.59;5018617;28;45354;-76
2022/09/13 01:05:49;;;;;;;;;6.00;6.00;;;;;21.51;70.00;100472.66;5016869;28;45605;-77
2022/09/13 01:08:21;;;;;;;;;6.33;5.33;;;;;21.46;69.99;100473.41;5029081;28;47082;-77
2022/09/13 01:10:48;;;;;;;;;6.00;6.00;;;;;21.52;70.50;100471.59;5036603;28;45811;-77
2022/09/13 01:13:25;;;;;;;;;5.33;5.33;;;;;21.49;70.55;100466.72;5026538;28;45285;-76
2022/09/13 01:15:51;;;;;;;;;5.00;5.00;;;;;21.48;70.94;100471.28;5019786;28;45328;-76
2022/09/13 01:18:18;;;;;;;;;4.00;4.00;;;;;21.55;70.54;100476.50;5027091;28;46247;-76
2022/09/13 01:21:05;;;;;;;;;6.00;6.00;;;;;21.61;70.57;100485.47;5017746;28;45331;-76
2022/09/13 01:23:54;;;;;;;;;6.00;6.00;;;;;21.65;70.58;100475.78;5028950;28;45428;-77
2022/09/13 01:26:51;;;;;;;;;6.00;6.00;;;;;21.66;70.73;100470.13;5030419;28;45268;-77
2022/09/13 01:29:54;;;;;;;;;6.67;5.33;;;;;21.63;70.97;100462.50;5040527;27;46296;-77
2022/09/13 01:32:40;;;;;;;;;4.67;4.67;;;;;21.61;70.72;100461.94;5033056;28;45333;-76
2022/09/13 01:35:21;;;;;;;;;6.33;6.33;;;;;21.60;71.22;100456.78;5017978;28;45225;-77
2022/09/13 01:37:46;;;;;;;;;4.00;4.00;;;;;21.63;70.68;100456.28;5017538;28;45531;-77
2022/09/13 01:40:42;;;;;;;;;4.67;4.67;;;;;21.76;70.15;100449.69;5025897;28;47042;-76
2022/09/13 01:43:41;;;;;;;;;5.67;5.67;;;;;21.66;70.65;100447.66;5017174;28;45219;-77
2022/09/13 01:46:38;;;;;;;;;7.00;5.00;;;;;21.63;70.73;100448.16;5017754;28;45295;-76
2022/09/13 01:49:19;;;;;;;;;3.00;3.00;;;;;21.67;70.64;100452.00;5028744;28;46320;-77
2022/09/13 01:51:57;;;;;;;;;7.00;7.00;;;;;21.66;70.79;100455.78;5034866;28;45457;-76
2022/09/13 01:54:33;;;;;;;;;6.67;5.67;;;;;21.60;70.94;100446.81;5017614;28;45465;-77
2022/09/13 01:57:17;;;;;;;;;6.67;6.67;;;;;21.58;70.76;100443.56;5017526;28;45368;-77
2022/09/13 01:59:50;;;;;;;;;7.00;6.00;;;;;21.51;70.56;100427.53;5017299;28;45341;-77
2022/09/13 02:02:50;;;;;;;;;4.00;3.00;;;;;21.57;70.38;100426.50;5017193;28;45871;-77
2022/09/13 02:05:31;;;;;;;;;4.00;4.00;;;;;21.60;69.28;100424.34;5032617;28;45325;-76
2022/09/13 02:08:04;;;;;;;;;4.00;4.00;;;;;21.55;69.17;100430.53;5017640;28;45377;-76
2022/09/13 02:10:46;;;;;;;;;6.00;5.00;;;;;21.54;69.33;100424.31;5017297;28;45475;-76
2022/09/13 02:13:17;;;;;;;;;2.00;2.00;;;;;21.58;69.54;100421.94;5017095;28;45396;-76
2022/09/13 02:15:47;;;;;;;;;5.33;5.33;;;;;21.51;69.52;100424.81;5018193;28;45622;-77
2022/09/13 02:18:23;;;;;;;;;5.67;4.67;;;;;21.52;68.88;100425.66;5026801;28;45241;-77
2022/09/13 02:20:52;;;;;;;;;10.33;9.33;;;;;21.52;69.30;100426.44;5033798;28;47308;-77
2022/09/13 02:23:27;;;;;;;;;9.67;9.67;;;;;21.52;69.41;100417.53;5026698;28;45366;-77
2022/09/13 02:25:56;;;;;;;;;8.67;7.33;;;;;21.52;69.07;100428.34;5016975;28;45717;-77
2022/09/13 02:28:31;;;;;;;;;8.67;7.33;;;;;21.51;68.96;100414.00;5017362;28;45412;-77
2022/09/13 02:30:59;;;;;;;;;10.00;10.00;;;;;21.49;69.66;100416.13;5029592;28;47177;-76
2022/09/13 02:33:45;;;;;;;;;8.00;7.00;;;;;21.48;69.58;100422.63;5017223;28;45524;-77
2022/09/13 02:36:22;;;;;;;;;10.00;9.00;;;;;21.43;70.20;100417.97;5015690;28;45239;-77
2022/09/13 02:38:54;;;;;;;;;10.00;10.00;;;;;;;;5015585;28;45407;-77
2022/09/13 02:41:43;;;;;;;;;11.67;10.00;;;;;21.43;69.77;100417.97;5016790;28;45317;-77
2022/09/13 02:44:20;;;;;;;;;10.00;9.67;;;;;21.43;70.18;100417.97;5029397;28;47328;-77
2022/09/13 02:46:47;;;;;;;;;7.67;7.67;;;;;21.42;70.22;100419.06;5023313;28;45412;-77
2022/09/13 02:49:42;;;;;;;;;8.00;8.00;;;;;21.33;69.61;100404.38;5023393;28;45421;-77
2022/09/13 02:52:18;;;;;;;;;4.33;4.33;;;;;21.23;69.92;100388.06;5020896;27;45641;-77
2022/09/13 02:54:49;;;;;;;;;4.67;4.33;;;;;21.28;69.58;100405.13;5028533;28;47216;-77
2022/09/13 02:57:24;;;;;;;;;6.00;6.00;;;;;21.31;69.70;100391.13;5016824;28;45463;-77
2022/09/13 02:59:49;;;;;;;;;5.33;4.00;;;;;21.30;69.56;100391.38;5017015;28;45442;-77
2022/09/13 03:02:20;;;;;;;;;4.00;4.00;;;;;21.36;69.94;100390.34;5016578;28;45570;-77
2022/09/13 03:04:45;;;;;;;;;5.67;4.00;;;;;21.33;69.18;100387.34;5016794;28;46290;-77
2022/09/13 03:07:12;;;;;;;;;7.00;6.00;;;;;21.27;69.46;100381.06;5033036;28;45732;-77
2022/09/13 03:09:47;;;;;;;;;5.00;5.00;;;;;21.21;69.68;100385.59;5026859;28;45412;-77
2022/09/13 03:12:38;;;;;;;;;5.67;5.33;;;;;21.18;69.92;100384.25;5016428;28;45329;-77
2022/09/13 03:15:32;;;;;;;;;5.00;4.00;;;;;21.10;69.90;100378.47;5027562;28;48065;-77
2022/09/13 03:18:13;;;;;;;;;4.00;4.00;;;;;21.16;70.23;100389.06;5027944;28;45285;-77
2022/09/13 03:20:46;;;;;;;;;4.00;4.00;;;;;21.16;70.07;100386.38;5016460;28;45545;-77
2022/09/13 03:23:17;;;;;;;;;2.67;2.67;;;;;21.26;70.03;100393.78;5016405;28;45253;-77
2022/09/13 03:26:20;;;;;;;;;5.33;4.67;;;;;21.28;69.88;100390.81;5029106;28;47207;-77
2022/09/13 03:29:23;;;;;;;;;5.00;5.00;;;;;21.29;69.46;100395.16;5028406;28;45402;-77
2022/09/13 03:31:54;;;;;;;;;7.00;7.00;;;;;21.26;70.05;100377.56;5025022;28;45424;-77
2022/09/13 03:34:44;;;;;;;;;4.00;4.00;;;;;21.29;69.85;100379.75;5016257;28;45602;-77
2022/09/13 03:37:31;;;;;;;;;4.33;4.33;;;;;21.28;69.96;100385.41;5016264;28;46250;-77
2022/09/13 03:40:07;;;;;;;;;5.00;5.00;;;;;21.16;69.55;100363.97;5022555;28;45374;-77
2022/09/13 03:42:49;;;;;;;;;7.67;6.00;;;;;21.17;70.21;100377.22;5021192;28;45609;-77
2022/09/13 03:45:20;;;;;;;;;7.00;5.00;;;;;21.15;69.82;100363.13;5016348;28;45371;-77
2022/09/13 03:47:48;;;;;;;;;4.00;4.00;;;;;21.26;70.31;100385.66;5028723;28;47406;-77
2022/09/13 03:50:19;;;;;;;;;5.00;5.00;;;;;21.30;69.68;100378.69;5019775;28;45386;-77
2022/09/13 03:52:50;;;;;;;;;4.33;4.33;;;;;21.31;69.78;100366.78;5025347;28;45427;-77
2022/09/13 03:55:20;;;;;;;;;3.33;3.33;;;;;21.31;69.84;100376.81;5032077;28;47329;-77
2022/09/13 03:57:45;;;;;;;;;5.00;4.67;;;;;21.27;70.10;100372.97;5034462;28;47252;-76
2022/09/13 04:00:13;;;;;;;;;5.00;5.00;;;;;21.31;70.32;100369.50;5106000;27;45371;-76
2022/09/13 04:02:39;;;;;;;;;5.00;5.00;;;;;21.36;69.86;100381.41;5023178;28;45318;-77
2022/09/13 04:05:05;;;;;;;;;5.00;5.00;;;;;21.31;69.59;100372.19;5022447;28;45520;-77
2022/09/13 04:07:31;;;;;;;;;3.67;3.67;;;;;21.34;70.67;100370.06;5023988;28;47521;-76
2022/09/13 04:09:56;;;;;;;;;3.00;3.00;;;;;21.39;70.37;100373.63;5034091;28;45678;-77
2022/09/13 04:12:21;;;;;;;;;4.00;4.00;;;;;21.34;70.58;100370.88;5018840;28;45486;-77
2022/09/13 04:14:47;;;;;;;;;3.67;3.67;;;;;21.34;70.23;100361.97;5018810;28;45345;-76
2022/09/13 04:17:12;;;;;;;;;5.00;5.00;;;;;21.39;70.54;100367.41;5029712;28;46306;-76
2022/09/13 04:19:39;;;;;;;;;6.33;6.33;;;;;21.51;70.05;100365.34;5018714;28;45337;-76
2022/09/13 04:22:04;;;;;;;;;4.33;4.33;;;;;21.44;70.20;100372.84;5018811;28;45279;-76
2022/09/13 04:24:30;;;;;;;;;5.33;5.33;;;;;21.45;70.42;100366.38;5018605;28;45391;-76
2022/09/13 04:26:56;;;;;;;;;5.00;5.00;;;;;21.40;69.96;100361.72;5018541;28;45473;-76
2022/09/13 04:29:23;;;;;;;;;5.00;5.00;;;;;21.38;70.56;100363.06;5018489;28;45543;-76
2022/09/13 04:31:50;;;;;;;;;6.00;6.00;;;;;21.40;70.88;100380.66;5018803;28;45403;-77
2022/09/13 04:34:21;;;;;;;;;4.00;4.00;;;;;21.45;70.98;100382.59;5031143;28;47504;-77
2022/09/13 04:36:46;;;;;;;;;4.00;4.00;;;;;21.47;70.81;100383.16;5018589;28;45415;-77
2022/09/13 04:39:15;;;;;;;;;6.33;6.33;;;;;21.46;70.92;100391.53;5018346;28;45302;-76
2022/09/13 04:41:43;;;;;;;;;5.33;5.33;;;;;21.48;70.94;100387.50;5017413;28;45558;-76
2022/09/13 04:44:09;;;;;;;;;4.33;4.33;;;;;21.50;70.63;100398.88;5024903;28;45393;-77
2022/09/13 04:46:34;;;;;;;;;5.33;5.33;;;;;21.49;70.83;100396.41;5018744;28;45222;-76
2022/09/13 04:49:00;;;;;;;;;6.67;6.00;;;;;21.45;70.73;100388.00;5052630;28;45250;-76
2022/09/13 04:51:25;;;;;;;;;8.33;8.33;;;;;21.49;70.81;100386.41;5026834;28;45322;-76
2022/09/13 04:53:56;;;;;;;;;7.00;7.00;;;;;21.51;71.02;100392.38;5018252;28;45308;-76
2022/09/13 04:56:22;;;;;;;;;7.67;7.67;;;;;21.50;70.60;100387.22;5032203;28;45863;-76
2022/09/13 04:58:51;;;;;;;;;5.00;4.00;;;;;;;;5019447;28;45454;-76
2022/09/13 05:01:17;;;;;;;;;5.00;4.33;;;;;21.44;70.83;100379.09;5027987;28;45482;-77
2022/09/13 05:03:42;;;;;;;;;5.67;5.67;;;;;21.42;70.85;100373.13;5020939;28;45611;-77
2022/09/13 05:06:10;;;;;;;;;5.67;5.00;;;;;21.31;71.09;100355.97;5018226;28;45313;-77
2022/09/13 05:08:36;;;;;;;;;5.00;5.00;;;;;21.22;71.33;100352.09;5018154;28;45329;-77
2022/09/13 05:11:03;;;;;;;;;5.00;5.00;;;;;21.25;71.36;100369.72;5018221;28;45403;-77
2022/09/13 05:13:28;;;;;;;;;5.00;4.00;;;;;21.22;70.94;100360.22;5027594;28;45438;-76
2022/09/13 05:15:58;;;;;;;;;5.00;5.00;;;;;21.32;71.08;100364.91;5024821;28;45468;-76
2022/09/13 05:18:28;;;;;;;;;6.67;6.00;;;;;21.35;71.00;100368.97;5020435;28;45364;-77
2022/09/13 05:20:54;;;;;;;;;5.00;5.00;;;;;21.39;71.16;100362.00;5027549;28;45420;-76
2022/09/13 05:23:20;;;;;;;;;6.67;6.00;;;;;21.37;71.72;100366.84;5033288;28;46342;-77
2022/09/13 05:25:54;;;;;;;;;5.00;5.00;;;;;21.33;71.41;100363.84;5025179;28;47544;-77
2022/09/13 05:28:21;;;;;;;;;4.33;4.33;;;;;21.31;71.70;100355.19;5022207;28;45372;-77
2022/09/13 05:31:06;;;;;;;;;3.33;3.33;;;;;21.35;72.07;100363.56;5018355;28;45301;-76
2022/09/13 05:33:34;;;;;;;;;6.00;6.00;;;;;21.30;71.58;100359.75;5017920;28;45571;-78
2022/09/13 05:36:00;;;;;;;;;8.00;7.67;;;;;21.31;71.82;100360.59;5018078;28;45409;-79
2022/09/13 05:38:25;;;;;;;;;8.33;8.33;;;;;21.25;71.36;100356.19;5017489;28;45331;-78
2022/09/13 05:40:55;;;;;;;;;7.33;7.33;;;;;21.34;71.53;100375.47;5019696;28;45437;-79
2022/09/13 05:43:21;;;;;;;;;5.67;5.67;;;;;21.30;71.61;100365.16;5029825;27;46855;-78
2022/09/13 05:45:47;;;;;;;;;9.00;8.67;;;;;21.28;71.55;100380.81;5020237;28;45394;-79
2022/09/13 05:48:12;;;;;;;;;9.67;9.00;;;;;21.31;71.69;100393.03;5032723;28;45335;-77
2022/09/13 05:50:38;;;;;;;;;6.00;6.00;;;;;21.27;71.86;100384.59;5023416;27;45467;-77
2022/09/13 05:53:04;;;;;;;;;5.00;5.00;;;;;21.27;72.71;100390.00;5027040;28;45541;-77
2022/09/13 05:55:29;;;;;;;;;7.33;6.00;;;;;21.27;72.47;100373.78;5046237;28;48071;-76
2022/09/13 05:57:55;;;;;;;;;9.33;7.33;;;;;21.28;72.49;100380.00;5033870;28;45514;-76
2022/09/13 06:00:20;;;;;;;;;5.00;5.00;;;;;21.11;72.66;100380.94;5025360;28;45628;-76
2022/09/13 06:02:46;;;;;;;;;6.00;4.33;;;;;21.17;73.13;100409.63;5036629;28;45380;-76
2022/09/13 06:05:11;;;;;;;;;5.00;5.00;;;;;21.27;72.55;100414.31;5024181;28;48349;-76
2022/09/13 06:07:41;;;;;;;;;6.67;6.67;;;;;21.29;72.87;100398.69;5017399;28;45830;-76
2022/09/13 06:10:08;;;;;;;;;9.00;8.33;;;;;21.41;73.01;100413.91;5018939;28;45289;-78
2022/09/13 06:12:33;;;;;;;;;9.00;8.00;;;;;21.36;72.17;100408.44;5020972;28;47329;-76
2022/09/13 06:14:58;;;;;;;;;7.67;7.67;;;;;21.40;72.45;100401.47;5027050;28;45725;-77
2022/09/13 06:17:24;;;;;;;;;6.33;6.33;;;;;21.39;72.96;100403.34;5030236;28;45329;-76
2022/09/13 06:19:49;;;;;;;;;8.67;8.67;;;;;21.41;73.07;100409.34;5017673;28;45523;-75
2022/09/13 06:22:15;;;;;;;;;6.00;6.00;;;;;21.35;72.61;100394.13;5026482;28;47200;-75
2022/09/13 06:24:40;;;;;;;;;7.00;7.00;;;;;21.41;72.93;100400.41;5017093;28;47080;-75
2022/09/13 06:27:05;;;;;;;;;8.67;8.00;;;;;21.44;73.43;100410.69;5016572;28;45373;-76
2022/09/13 06:29:31;;;;;;;;;7.67;7.00;;;;;21.43;73.59;100406.38;5017542;28;45368;-76
2022/09/13 06:31:56;;;;;;;;;8.67;8.67;;;;;21.41;74.04;100411.22;5017218;28;46339;-76
2022/09/13 06:34:22;;;;;;;;;10.33;10.33;;;;;21.42;73.60;100402.84;5029963;28;47947;-75
2022/09/13 06:36:47;;;;;;;;;8.67;8.00;;;;;21.49;73.62;100412.63;5017234;28;45539;-76
2022/09/13 06:39:13;;;;;;;;;8.67;7.33;;;;;;;;5026148;28;45310;-79
2022/09/13 06:41:38;;;;;;;;;11.00;9.67;;;;;21.48;73.70;100401.00;5020632;28;45515;-77
2022/09/13 06:44:04;;;;;;;;;14.00;12.33;;;;;21.49;73.82;100402.63;5031055;28;46453;-76
2022/09/13 06:46:32;;;;;;;;;13.67;13.00;;;;;21.41;73.87;100387.72;5022619;28;45297;-77
2022/09/13 06:49:00;;;;;;;;;12.33;12.00;;;;;21.38;74.13;100380.09;5028458;28;45575;-77
2022/09/13 06:51:26;;;;;;;;;13.33;12.00;;;;;21.41;73.95;100374.19;5032181;28;47155;-76
2022/09/13 06:53:55;;;;;;;;;12.00;10.00;;;;;21.41;74.34;100367.97;5016788;28;45350;-76
2022/09/13 06:56:29;;;;;;;;;10.67;9.33;;;;;21.35;74.33;100348.19;5016892;28;45361;-77
2022/09/13 06:59:00;;;;;;;;;7.00;7.00;;;;;21.30;74.42;100343.53;5016662;28;45230;-77
2022/09/13 07:01:34;;;;;;;;;9.00;7.33;;;;;21.38;73.76;100352.25;5016396;28;45362;-78
2022/09/13 07:04:01;;;;;;;;;8.00;8.00;;;;;21.36;74.52;100341.69;5028307;28;45427;-77
2022/09/13 07:06:29;;;;;;;;;7.00;7.00;;;;;21.46;73.67;100338.25;5035190;28;45424;-77
2022/09/13 07:08:56;;;;;;;;;10.00;9.00;;;;;21.51;73.86;100341.03;5026117;28;45439;-77
2022/09/13 07:11:24;;;;;;;;;6.33;6.00;;;;;21.54;73.43;100339.69;5016353;28;45735;-77
2022/09/13 07:13:55;;;;;;;;;15.33;15.33;;;;;21.62;73.89;100341.94;5016528;28;45402;-77
2022/09/13 07:16:24;;;;;;;;;9.67;9.67;;;;;21.66;73.47;100331.38;5020974;28;45259;-78
2022/09/13 07:18:56;;;;;;;;;11.67;9.33;;;;;21.67;73.80;100317.63;5023312;28;45354;-77
2022/09/13 07:21:22;;;;;;;;;7.00;7.00;;;;;21.71;73.15;100307.09;5021356;28;45294;-78
2022/09/13 07:23:48;;;;;;;;;9.00;8.33;;;;;21.74;73.25;100309.28;5016415;28;45650;-79
2022/09/13 07:26:14;;;;;;;;;14.00;14.00;;;;;21.86;72.89;100322.66;5016264;28;45361;-79
2022/09/13 07:28:42;;;;;;;;;32.33;30.00;;;;;21.86;72.79;100302.91;5022129;28;45410;-78
2022/09/13 07:31:31;;;;;;;;;69.75;60.25;;;;;21.95;73.03;100309.44;5016380;28;45586;-78
2022/09/13 07:34:02;;;;;;;;;14.00;13.00;;;;;22.02;72.80;100309.19;5016279;28;45488;-79
2022/09/13 07:36:29;;;;;;;;;12.33;12.33;;;;;22.06;71.93;100313.84;5025103;28;45371;-78
2022/09/13 07:38:56;;;;;;;;;8.00;8.00;;;;;22.11;72.01;100306.81;5019841;28;45240;-79
2022/09/13 07:41:22;;;;;;;;;9.00;9.00;;;;;22.22;71.96;100316.63;5023173;28;47165;-79
2022/09/13 07:43:48;;;;;;;;;6.67;5.00;;;;;22.26;71.86;100317.72;5021481;28;46809;-79
2022/09/13 07:46:16;;;;;;;;;6.33;4.33;;;;;22.32;71.25;100316.66;5038258;28;45324;-78
2022/09/13 07:48:43;;;;;;;;;7.00;5.67;;;;;22.25;71.48;100299.88;5024486;28;45400;-78
2022/09/13 07:51:13;;;;;;;;;5.00;5.00;;;;;22.35;71.67;100330.78;5027926;28;45556;-79
2022/09/13 07:53:39;;;;;;;;;10.00;7.00;;;;;22.37;71.60;100329.41;5017439;28;46513;-79
2022/09/13 07:56:18;;;;;;;;;7.67;7.67;;;;;22.40;70.98;100322.66;5021492;28;46050;-79
2022/09/13 07:58:46;;;;;;;;;5.00;5.00;;;;;22.43;71.62;100320.25;5043640;27;45293;-79
2022/09/13 08:01:29;;;;;;;;;6.00;6.00;;;;;22.49;71.00;100323.78;5050997;28;46277;-80
2022/09/13 08:03:57;;;;;;;;;33.00;29.00;;;;;22.52;71.23;100320.53;5020759;28;45451;-79
2022/09/13 08:06:24;;;;;;;;;7.00;7.00;;;;;22.53;70.89;100315.94;5013778;28;45615;-78
2022/09/13 08:08:49;;;;;;;;;5.00;4.67;;;;;22.61;71.04;100311.94;5015245;28;45409;-78
2022/09/13 08:11:20;;;;;;;;;8.33;7.33;;;;;22.55;70.92;100309.19;5015401;28;45284;-78
2022/09/13 08:13:46;;;;;;;;;5.00;5.00;;;;;22.65;70.82;100324.69;5015878;28;45659;-79
2022/09/13 08:16:12;;;;;;;;;7.00;5.33;;;;;22.74;70.90;100329.59;5015727;28;45838;-78
2022/09/13 08:18:46;;;;;;;;;6.00;6.00;;;;;22.75;70.68;100329.31;5016059;28;45262;-78
2022/09/13 08:21:12;;;;;;;;;6.00;4.33;;;;;22.79;70.65;100327.69;5013761;28;45446;-79
2022/09/13 08:23:37;;;;;;;;;5.00;5.00;;;;;22.78;70.72;100312.50;5020781;28;48452;-78
2022/09/13 08:26:05;;;;;;;;;6.67;6.67;;;;;22.91;70.38;100322.03;5019324;28;45350;-78
2022/09/13 08:28:31;;;;;;;;;4.00;4.00;;;;;22.94;70.60;100320.69;5015219;28;45388;-77
2022/09/13 08:31:05;;;;;;;;;11.00;11.00;;;;;23.01;71.28;100317.72;5017691;28;45373;-79
2022/09/13 08:33:32;;;;;;;;;7.00;7.00;;;;;23.10;70.72;100312.59;5036504;28;47055;-78
2022/09/13 08:35:58;;;;;;;;;6.33;6.33;;;;;23.17;70.60;100319.34;5022324;28;45461;-79
2022/09/13 08:38:23;;;;;;;;;7.00;7.00;;;;;23.28;69.48;100314.75;5014952;28;45326;-80
2022/09/13 08:41:11;;;;;;;;;5.00;5.00;;;;;23.38;69.70;100321.31;5020687;28;46952;-80
2022/09/13 08:43:48;;;;;;;;;6.00;6.00;;;;;23.36;69.31;100331.56;5007264;28;45711;-80
2022/09/13 08:46:25;;;;;;;;;8.00;8.00;;;;;23.55;69.73;100321.84;5026182;28;45489;-80
2022/09/13 08:48:57;;;;;;;;;7.00;6.00;;;;;23.73;68.81;100319.63;5015622;28;45403;-81
2022/09/13 08:51:32;;;;;;;;;7.67;6.67;;;;;23.82;67.98;100322.59;5029142;28;46581;-79
2022/09/13 08:53:59;;;;;;;;;4.00;4.00;;;;;23.91;67.76;100323.69;5030077;28;47428;-81
2022/09/13 08:56:45;;;;;;;;;6.00;6.00;;;;;23.89;67.53;100336.72;5016691;28;45957;-79
2022/09/13 08:59:16;;;;;;;;;7.00;7.00;;;;;23.90;67.53;100335.63;5027302;28;45460;-80
2022/09/13 09:02:00;;;;;;;;;5.33;5.00;;;;;23.94;68.04;100335.88;5027139;28;45569;-80
2022/09/13 09:04:25;;;;;;;;;5.67;5.67;;;;;24.16;67.60;100335.63;5031674;28;47429;-79
2022/09/13 09:07:04;;;;;;;;;4.67;4.67;;;;;24.24;66.83;100333.41;5034121;28;46204;-80
2022/09/13 09:09:34;;;;;;;;;5.00;3.00;;;;;24.33;67.22;100334.44;5017609;28;45345;-80
2022/09/13 09:12:26;;;;;;;;;3.00;3.00;;;;;24.38;66.78;100326.28;5017860;28;45350;-80
2022/09/13 09:15:01;;;;;;;;;4.67;4.67;;;;;24.51;66.73;100341.16;5017497;28;46261;-79
2022/09/13 09:17:55;;;;;;;;;4.67;3.67;;;;;24.56;67.04;100335.72;5020720;28;45443;-80
2022/09/13 09:20:32;;;;;;;;;8.00;6.67;;;;;24.68;66.33;100342.72;5022636;27;45443;-81
2022/09/13 09:23:03;;;;;;;;;5.00;5.00;;;;;24.83;66.50;100342.66;5045223;27;45748;-80
2022/09/13 09:25:30;;;;;;;;;5.00;5.00;;;;;24.87;65.84;100325.78;5089533;27;45603;-80
2022/09/13 09:27:57;;;;;;;;;4.67;4.67;;;;;25.02;65.98;100330.34;5030755;28;45338;-80
2022/09/13 09:30:30;;;;;;;;;4.00;4.00;;;;;25.12;65.73;100329.44;5022995;28;45308;-80
2022/09/13 09:33:05;;;;;;;;;4.67;4.67;;;;;25.13;65.95;100336.50;5109677;27;47368;-80
2022/09/13 09:35:42;;;;;;;;;7.00;7.00;;;;;25.37;65.98;100333.88;5017237;28;46513;-84
2022/09/13 09:38:31;;;;;;;;;6.00;6.00;;;;;25.60;65.69;100339.72;5027821;28;45357;-81
2022/09/13 09:41:02;;;;;;;;;5.00;5.00;;;;;25.67;64.82;100339.34;5029972;28;45337;-80
2022/09/13 09:43:34;;;;;;;;;4.67;4.67;;;;;25.77;64.39;100339.25;5017903;28;45344;-79
2022/09/13 09:46:03;;;;;;;;;3.00;3.00;;;;;25.86;63.60;100339.47;5017794;28;45440;-79
2022/09/13 09:48:40;;;;;;;;;3.00;3.00;;;;;25.93;62.78;100337.22;5022015;28;45346;-80
2022/09/13 09:51:09;;;;;;;;;4.00;4.00;;;;;26.06;63.66;100352.03;5035496;28;45388;-79
2022/09/13 09:53:42;;;;;;;;;4.00;2.33;;;;;26.09;62.56;100340.56;5023311;28;45556;-81
2022/09/13 09:56:27;;;;;;;;;4.00;4.00;;;;;26.24;60.73;100363.28;5035409;28;47051;-80
2022/09/13 09:58:54;;;;;;;;;3.00;3.00;;;;;26.27;61.56;100373.59;5037759;28;45332;-80
2022/09/13 10:01:36;;;;;;;;;3.67;3.67;;;;;26.31;62.09;100374.66;5019047;28;45456;-80
2022/09/13 10:04:07;;;;;;;;;2.67;2.67;;;;;26.31;62.01;100385.56;5015128;28;46199;-79
2022/09/13 10:06:35;;;;;;;;;4.00;4.00;;;;;26.38;61.79;100376.22;5023463;28;48051;-79
2022/09/13 10:09:04;;;;;;;;;4.33;4.00;;;;;26.30;60.39;100372.22;5022232;28;45284;-79
2022/09/13 10:11:49;;;;;;;;;5.00;4.00;;;;;26.45;61.14;100379.41;5017775;28;45426;-79
2022/09/13 10:14:33;;;;;;;;;3.00;3.00;;;;;26.44;60.53;100372.34;5016843;28;45453;-79
2022/09/13 10:17:11;;;;;;;;;4.67;4.67;;;;;26.39;60.13;100375.16;5028024;28;48157;-79
2022/09/13 10:19:37;;;;;;;;;2.00;2.00;;;;;26.24;60.88;100374.16;5024370;28;45426;-78
2022/09/13 10:22:11;;;;;;;;;5.00;5.00;;;;;26.25;61.96;100392.16;5037398;28;45396;-77
2022/09/13 10:24:36;;;;;;;;;4.33;4.33;;;;;26.23;60.99;100386.19;5032889;28;45737;-77
2022/09/13 10:27:05;;;;;;;;;3.33;3.33;;;;;26.17;61.93;100379.16;5018940;28;45831;-76
2022/09/13 10:29:32;;;;;;;;;4.00;4.00;;;;;26.16;62.37;100374.81;5032228;28;45336;-79
2022/09/13 10:32:00;;;;;;;;;5.33;5.33;;;;;26.11;61.96;100353.91;5017007;28;45297;-76
2022/09/13 10:34:33;;;;;;;;;7.00;6.00;;;;;26.17;60.60;100369.09;5017252;28;45476;-79
2022/09/13 10:37:16;;;;;;;;;4.67;4.67;;;;;26.16;60.72;100356.56;5017796;28;45475;-78
2022/09/13 10:40:11;;;;;;;;;4.00;4.00;;;;;26.28;60.60;100369.75;5030576;28;45704;-80
2022/09/13 10:42:37;;;;;;;;;4.33;4.33;;;;;26.33;61.10;100368.94;5027430;28;45304;-78
2022/09/13 10:45:07;;;;;;;;;6.00;6.00;;;;;26.40;61.38;100360.41;5032505;28;46017;-79
2022/09/13 10:47:46;;;;;;;;;6.00;5.00;;;;;26.53;61.19;100376.06;5016886;28;45723;-78
2022/09/13 10:50:27;;;;;;;;;5.00;5.00;;;;;26.53;61.17;100356.16;5020739;28;45590;-79
2022/09/13 10:52:54;;;;;;;;;4.33;4.33;;;;;26.58;59.93;100364.28;5025827;28;45385;-78
2022/09/13 10:55:28;;;;;;;;;6.00;5.67;;;;;26.55;60.02;100365.66;5033265;28;46136;-79
2022/09/13 10:58:06;;;;;;;;;6.33;5.00;;;;;26.53;59.87;100365.16;5032206;28;48237;-78
2022/09/13 11:00:59;;;;;;;;;3.67;3.67;;;;;26.53;59.62;100358.88;5121429;27;45703;-78
2022/09/13 11:03:24;;;;;;;;;3.00;3.00;;;;;26.51;59.42;100375.53;5022113;28;45329;-78
2022/09/13 11:06:28;;;;;;;;;6.00;5.00;;;;;26.55;60.21;100373.84;5022050;28;47253;-79
2022/09/13 11:09:02;;;;;;;;;5.00;5.00;;;;;26.52;60.04;100376.34;5032722;28;47103;-78
2022/09/13 11:11:40;;;;;;;;;5.33;5.33;;;;;26.51;60.28;100382.91;5016694;28;45295;-78
2022/09/13 11:14:39;;;;;;;;;3.00;3.00;;;;;26.57;60.70;100377.09;5016119;28;45219;-78
2022/09/13 11:17:32;;;;;;;;;5.33;5.00;;;;;26.62;61.03;100378.13;5027580;28;45408;-78
2022/09/13 11:20:06;;;;;;;;;5.67;5.67;;;;;26.65;60.04;100372.91;5016582;28;45568;-78
2022/09/13 11:22:47;;;;;;;;;5.67;5.67;;;;;26.69;60.48;100363.03;5034293;28;46136;-78
2022/09/13 11:25:36;;;;;;;;;6.33;6.33;;;;;26.56;59.92;100350.94;5031364;28;45293;-78
2022/09/13 11:28:27;;;;;;;;;6.00;6.00;;;;;26.53;59.52;100362.44;5028236;28;45311;-79
2022/09/13 11:31:31;;;;;;;;;2.67;2.00;;;;;26.57;60.15;100360.75;5017031;28;45411;-80
2022/09/13 11:33:56;;;;;;;;;6.00;6.00;;;;;26.59;60.50;100358.53;5029570;28;45397;-80
2022/09/13 11:36:31;;;;;;;;;5.67;5.67;;;;;26.67;59.34;100356.25;5027180;28;45388;-79
2022/09/13 11:39:02;;;;;;;;;7.00;6.00;;;;;26.55;59.43;100332.97;5019961;28;45468;-78
2022/09/13 11:41:41;;;;;;;;;5.67;5.67;;;;;26.79;58.95;100347.66;5033786;28;47310;-78
2022/09/13 11:44:16;;;;;;;;;3.67;3.67;;;;;27.03;59.11;100328.53;5032420;28;45526;-78
2022/09/13 11:46:53;;;;;;;;;4.00;4.00;;;;;27.21;57.88;100318.69;5032109;28;45386;-77
2022/09/13 11:49:30;;;;;;;;;5.67;5.67;;;;;27.35;57.21;100328.84;5016656;28;45504;-78
2022/09/13 11:51:58;;;;;;;;;5.33;5.00;;;;;27.42;57.08;100326.56;5030150;28;45624;-76